createdAt,value
2023-03-26T00:00:31.034Z,13.80
2023-03-26T00:03:08.365Z,15.20
2023-03-26T00:05:45.928Z,15.50
2023-03-26T00:08:18.223Z,14.30
2023-03-26T00:10:47.465Z,14.70
2023-03-26T00:16:19.532Z,12.10
2023-03-26T00:18:49.090Z,14.20
2023-03-26T00:21:25.832Z,13.60
2023-03-26T00:24:15.998Z,14.10
2023-03-26T00:26:52.902Z,13.60
2023-03-26T00:29:28.023Z,13.40
2023-03-26T00:31:55.509Z,15.20
2023-03-26T00:34:28.594Z,12.70
2023-03-26T00:39:54.345Z,12.80
2023-03-26T00:42:51.555Z,12.50
2023-03-26T00:45:24.277Z,14.20
2023-03-26T00:47:57.170Z,13.40
2023-03-26T00:50:39.537Z,14.30
2023-03-26T00:56:00.660Z,13.50
2023-03-26T00:58:57.689Z,15.40
2023-03-26T01:01:36.978Z,13.30
2023-03-26T01:04:42.223Z,14.30
2023-03-26T01:07:50.586Z,13.80
2023-03-26T01:13:29.306Z,13.60
2023-03-26T01:16:11.743Z,14.30
2023-03-26T01:18:46.136Z,14.20
2023-03-26T01:21:24.603Z,15.00
2023-03-26T01:24:03.488Z,12.70
2023-03-26T01:27:10.689Z,14.50
2023-03-26T01:29:52.989Z,13.50
2023-03-26T01:33:05.983Z,12.00
2023-03-26T01:35:52.904Z,13.20
2023-03-26T01:39:20.656Z,15.20
2023-03-26T01:41:56.416Z,11.90
2023-03-26T01:44:46.456Z,13.50
2023-03-26T01:47:27.666Z,11.80
2023-03-26T01:50:04.013Z,14.70
2023-03-26T01:52:36.047Z,11.50
2023-03-26T01:55:14.804Z,11.50
2023-03-26T01:58:21.137Z,11.50
2023-03-26T02:04:15.616Z,12.00
2023-03-26T02:07:25.901Z,11.90
2023-03-26T02:10:37.103Z,11.70
2023-03-26T02:14:00.148Z,13.20
2023-03-26T02:16:31.790Z,14.10
2023-03-26T02:19:26.668Z,14.70
2023-03-26T02:22:07.539Z,12.20
2023-03-26T02:24:38.818Z,13.10
2023-03-26T02:27:12.149Z,12.20
2023-03-26T02:30:04.029Z,12.40
2023-03-26T02:32:49.089Z,13.60
2023-03-26T02:35:22.824Z,12.50
2023-03-26T02:37:56.343Z,11.30
2023-03-26T02:40:45.152Z,13.00
2023-03-26T02:43:15.266Z,9.90
2023-03-26T02:46:10.503Z,9.90
2023-03-26T02:50:19.782Z,11.40
2023-03-26T02:53:35.303Z,10.40
2023-03-26T02:56:24.562Z,11.30
2023-03-26T02:59:14.545Z,10.50
2023-03-26T03:12:32.064Z,11.10
2023-03-26T03:15:41.401Z,10.40
2023-03-26T03:19:08.759Z,11.40
2023-03-26T03:28:32.249Z,11.20
2023-03-26T03:31:38.775Z,10.00
2023-03-26T03:34:25.259Z,11.60
2023-03-26T03:37:15.341Z,10.80
2023-03-26T03:40:12.491Z,10.50
2023-03-26T03:42:41.931Z,10.70
2023-03-26T03:45:14.859Z,11.30
2023-03-26T03:48:12.742Z,10.70
2023-03-26T03:54:04.822Z,10.30
2023-03-26T04:00:38.038Z,8.80
2023-03-26T04:03:33.827Z,9.10
2023-03-26T04:06:37.093Z,9.70
2023-03-26T04:09:10.850Z,10.00
2023-03-26T04:14:53.334Z,8.70
2023-03-26T04:17:42.555Z,8.30
2023-03-26T04:20:15.532Z,8.90
2023-03-26T04:22:48.683Z,8.20
2023-03-26T04:26:13.329Z,8.60
2023-03-26T04:35:49.096Z,9.10
2023-03-26T04:38:49.172Z,8.30
2023-03-26T04:41:19.386Z,8.10
2023-03-26T04:43:58.207Z,7.80
2023-03-26T04:47:03.165Z,8.20
2023-03-26T04:49:51.149Z,7.80
2023-03-26T04:52:30.681Z,7.40
2023-03-26T04:56:47.590Z,7.20
2023-03-26T05:00:06.050Z,7.40
2023-03-26T05:06:01.747Z,8.70
2023-03-26T05:08:48.154Z,7.50
2023-03-26T05:11:38.313Z,7.30
2023-03-26T05:14:19.682Z,7.60
2023-03-26T05:17:50.464Z,10.20
2023-03-26T05:20:42.094Z,7.70
2023-03-26T05:23:37.137Z,7.50
2023-03-26T05:26:22.673Z,6.70
2023-03-26T05:29:06.145Z,8.20
2023-03-26T05:31:49.008Z,5.80
2023-03-26T05:34:51.247Z,5.80
2023-03-26T05:37:33.379Z,6.50
2023-03-26T05:40:12.558Z,5.90
2023-03-26T05:42:52.279Z,6.60
2023-03-26T05:45:43.973Z,7.90
2023-03-26T05:48:56.946Z,6.50
2023-03-26T05:51:28.866Z,8.30
2023-03-26T05:54:10.657Z,6.60
2023-03-26T05:56:45.761Z,6.60
2023-03-26T05:59:46.490Z,6.00
2023-03-26T06:02:37.738Z,6.60
2023-03-26T06:05:21.579Z,7.50
2023-03-26T06:11:22.877Z,7.00
2023-03-26T06:14:05.016Z,6.70
2023-03-26T06:17:02.426Z,6.90
2023-03-26T06:20:16.183Z,6.70
2023-03-26T06:41:40.758Z,6.90
2023-03-26T06:55:20.673Z,6.90
2023-03-26T06:58:53.080Z,6.50
2023-03-26T07:02:05.695Z,7.30
2023-03-26T07:05:27.475Z,6.10
2023-03-26T07:25:18.998Z,6.40
2023-03-26T07:47:34.560Z,5.60
2023-03-26T07:50:30.526Z,5.60
2023-03-26T09:14:50.699Z,9.80
2023-03-26T09:17:42.698Z,9.60
2023-03-26T09:27:56.954Z,8.00
2023-03-26T09:34:54.181Z,8.30
2023-03-26T09:37:58.255Z,9.00
2023-03-26T09:40:53.088Z,10.50
2023-03-26T09:51:19.530Z,9.60
2023-03-26T09:54:21.138Z,7.80
2023-03-26T10:01:42.041Z,7.20
2023-03-26T10:04:50.207Z,7.50
2023-03-26T10:08:25.592Z,6.40
2023-03-26T10:12:37.896Z,6.80
2023-03-26T19:11:46.894Z,20.30
2023-03-26T19:14:20.221Z,8.10
2023-03-26T19:16:55.868Z,5.30
2023-03-26T19:19:26.535Z,6.00
2023-03-26T19:21:56.419Z,4.90
2023-03-26T19:24:47.807Z,14.00
2023-03-26T19:27:26.268Z,6.50
2023-03-26T19:30:05.854Z,6.60
2023-03-26T19:32:35.759Z,5.60
2023-03-26T19:35:21.394Z,7.50
2023-03-26T19:37:53.664Z,6.10
2023-03-26T19:40:29.697Z,8.70
2023-03-26T19:42:57.243Z,11.10
2023-03-26T19:45:28.128Z,9.30
2023-03-26T19:48:13.935Z,7.70
2023-03-26T19:51:22.788Z,8.60
2023-03-26T19:53:59.484Z,8.50
2023-03-26T19:56:29.564Z,7.60
2023-03-26T19:58:56.961Z,8.40
2023-03-26T20:01:32.157Z,9.00
2023-03-26T20:04:01.562Z,7.90
2023-03-26T20:06:42.485Z,8.10
2023-03-26T20:09:11.692Z,6.90
2023-03-26T20:11:39.175Z,7.20
2023-03-26T20:14:18.215Z,6.50
2023-03-26T20:16:47.059Z,6.50
2023-03-26T20:19:15.200Z,6.10
2023-03-26T20:21:46.165Z,6.70
2023-03-26T20:24:17.169Z,7.10
2023-03-26T20:26:45.043Z,8.00
2023-03-26T20:29:15.962Z,3.30
2023-03-26T20:31:43.379Z,8.50
2023-03-26T20:34:19.200Z,6.90
2023-03-26T20:36:54.878Z,7.30
2023-03-26T20:39:25.852Z,6.60
2023-03-26T20:41:54.069Z,6.80
2023-03-26T20:44:21.955Z,5.30
2023-03-26T20:46:52.663Z,7.70
2023-03-26T20:49:21.879Z,7.20
2023-03-26T20:51:49.569Z,8.40
2023-03-26T20:54:25.427Z,8.20
2023-03-26T20:56:54.282Z,6.00
2023-03-26T20:59:25.719Z,4.60
2023-03-26T21:01:56.397Z,5.90
2023-03-26T21:04:25.580Z,5.50
2023-03-26T21:06:57.638Z,5.30
2023-03-26T21:09:33.536Z,6.50
2023-03-26T21:12:07.558Z,5.40
2023-03-26T21:14:42.849Z,5.00
2023-03-26T21:17:15.093Z,5.40
2023-03-26T21:19:42.593Z,5.20
2023-03-26T21:22:35.242Z,6.50
2023-03-26T21:28:00.062Z,5.80
2023-03-26T21:30:27.294Z,4.20
2023-03-26T21:32:54.884Z,5.00
2023-03-26T21:35:24.209Z,5.00
2023-03-26T21:37:52.506Z,3.80
2023-03-26T21:40:20.522Z,5.30
2023-03-26T21:42:51.553Z,5.80
2023-03-26T21:45:19.378Z,4.20
2023-03-26T21:50:47.199Z,5.90
2023-03-26T21:53:16.648Z,7.00
2023-03-26T21:55:57.579Z,6.10
2023-03-26T21:59:08.256Z,5.60
2023-03-26T22:02:25.961Z,4.60
2023-03-26T22:05:04.248Z,5.90
2023-03-26T22:07:44.253Z,5.50
2023-03-26T22:10:12.218Z,6.70
2023-03-26T22:12:41.023Z,7.00
2023-03-26T22:15:13.200Z,6.00
2023-03-26T22:17:41.408Z,5.70
2023-03-26T22:20:10.140Z,6.20
2023-03-26T22:22:37.138Z,6.20
2023-03-26T22:25:04.379Z,6.50
2023-03-26T22:27:34.152Z,6.00
2023-03-26T22:30:12.357Z,6.20
2023-03-26T22:32:42.758Z,6.60
2023-03-26T22:35:09.950Z,6.70
2023-03-26T22:37:37.248Z,6.80
2023-03-26T22:40:08.503Z,7.90
2023-03-26T22:42:36.539Z,7.40
2023-03-26T22:45:09.068Z,7.20
2023-03-26T22:47:38.284Z,7.20
2023-03-26T22:50:07.268Z,6.90
2023-03-26T22:52:36.212Z,6.30
2023-03-26T22:55:04.829Z,6.00
2023-03-26T22:57:32.943Z,7.60
2023-03-26T23:00:11.616Z,6.80
2023-03-26T23:02:40.022Z,7.10
2023-03-26T23:05:08.685Z,6.10
2023-03-26T23:07:37.023Z,7.50
2023-03-26T23:10:05.582Z,7.20
2023-03-26T23:12:34.885Z,6.50
2023-03-26T23:15:04.696Z,7.70
2023-03-26T23:17:34.727Z,7.50
2023-03-26T23:20:06.409Z,7.40
2023-03-26T23:22:34.769Z,8.30
2023-03-26T23:25:02.737Z,8.20
2023-03-26T23:27:32.444Z,8.80
2023-03-26T23:30:03.084Z,8.40
2023-03-26T23:32:32.604Z,8.00
2023-03-26T23:35:00.345Z,7.60
2023-03-26T23:37:28.904Z,9.30
2023-03-26T23:39:58.256Z,9.30
2023-03-26T23:42:28.338Z,8.10
2023-03-26T23:44:57.017Z,9.30
2023-03-26T23:47:26.720Z,9.00
2023-03-26T23:49:55.527Z,9.30
2023-03-26T23:52:24.639Z,11.40
2023-03-26T23:54:51.582Z,10.10
2023-03-26T23:57:18.898Z,9.50
2023-03-26T23:59:48.026Z,9.10
